Time,TemperatureF,DewpointF,PressureIn,WindDirection,WindDirectionDegrees,WindSpeedMPH,WindSpeedGustMPH,Humidity,HourlyPrecipIn,Conditions,Clouds,dailyrainin,SoftwareType,DateUTC
2013-01-02 00:08:00,48.5,46.0,30.09,East,82,1.0,2.0,90,0.00,,,0.00,weatherlink.com 1.10,2013-01-01 23:08:00,
2013-01-02 00:23:00,48.5,46.0,30.10,East,79,1.0,1.0,90,0.00,,,0.00,weatherlink.com 1.10,2013-01-01 23:23:00,
2013-01-02 00:38:00,48.6,46.0,30.09,NNE,32,1.0,1.0,89,0.00,,,0.00,weatherlink.com 1.10,2013-01-01 23:38:00,
2013-01-02 00:53:00,48.5,45.0,30.10,North,354,0.0,2.0,88,0.00,,,0.00,weatherlink.com 1.10,2013-01-01 23:53:00,
2013-01-02 01:08:00,47.6,44.0,30.10,North,1,0.0,1.0,88,0.00,,,0.00,weatherlink.com 1.10,2013-01-02 00:08:00,
2013-01-02 01:23:00,46.8,44.0,30.10,North,354,1.0,3.0,90,0.00,,,0.00,weatherlink.com 1.10,2013-01-02 00:23:00,
2013-01-02 01:38:00,47.5,44.0,30.10,NNW,334,2.0,5.0,87,0.00,,,0.00,weatherlink.com 1.10,2013-01-02 00:38:00,
2013-01-02 01:53:00,47.6,43.0,30.10,North,354,1.0,4.0,85,0.00,,,0.00,weatherlink.com 1.10,2013-01-02 00:53:00,
2013-01-02 02:08:00,47.2,43.0,30.10,NNW,337,1.0,3.0,85,0.00,,,0.00,weatherlink.com 1.10,2013-01-02 01:08:00,
2013-01-02 02:23:00,47.0,43.0,30.10,North,352,1.0,1.0,85,0.00,,,0.00,weatherlink.com 1.10,2013-01-02 01:23:00,
2013-01-02 02:38:00,47.3,43.0,30.11,NNW,346,1.0,2.0,85,0.00,,,0.00,weatherlink.com 1.10,2013-01-02 01:38:00,
2013-01-02 02:53:00,48.3,42.0,30.11,NNW,334,2.0,3.0,80,0.00,,,0.00,weatherlink.com 1.10,2013-01-02 01:53:00,
2013-01-02 03:08:00,48.6,42.0,30.12,NNW,343,2.0,4.0,79,0.00,,,0.00,weatherlink.com 1.10,2013-01-02 02:08:00,
2013-01-02 03:23:00,49.4,43.0,30.12,NNW,348,1.0,3.0,78,0.00,,,0.00,weatherlink.com 1.10,2013-01-02 02:23:00,
2013-01-02 03:38:00,49.7,43.0,30.12,NW,314,1.0,3.0,77,0.00,,,0.00,weatherlink.com 1.10,2013-01-02 02:38:00,
2013-01-02 03:53:00,50.4,43.0,30.12,NNW,345,0.0,2.0,76,0.00,,,0.00,weatherlink.com 1.10,2013-01-02 02:53:00,
2013-01-02 04:08:00,50.7,43.0,30.12,NW,305,3.0,3.0,75,0.00,,,0.00,weatherlink.com 1.10,2013-01-02 03:08:00,
2013-01-02 04:23:00,50.6,43.0,30.11,NNE,20,2.0,4.0,76,0.00,,,0.00,weatherlink.com 1.10,2013-01-02 03:23:00,
2013-01-02 04:38:00,50.8,44.0,30.11,North,359,1.0,3.0,77,0.00,,,0.00,weatherlink.com 1.10,2013-01-02 03:38:00,
2013-01-02 04:53:00,50.5,44.0,30.11,NNW,331,0.0,3.0,78,0.00,,,0.00,weatherlink.com 1.10,2013-01-02 03:53:00,
2013-01-02 05:08:00,49.9,44.0,30.11,NNW,336,1.0,3.0,79,0.00,,,0.00,weatherlink.com 1.10,2013-01-02 04:08:00,
2013-01-02 05:23:00,49.8,44.0,30.11,NNE,13,1.0,1.0,79,0.00,,,0.00,weatherlink.com 1.10,2013-01-02 04:23:00,
2013-01-02 05:38:00,50.4,43.0,30.10,NNE,18,0.0,1.0,77,0.00,,,0.00,weatherlink.com 1.10,2013-01-02 04:38:00,
2013-01-02 05:53:00,51.2,44.0,30.11,North,4,0.0,1.0,75,0.00,,,0.00,weatherlink.com 1.10,2013-01-02 04:53:00,
2013-01-02 06:08:00,51.5,43.0,30.11,WNW,295,3.0,3.0,73,0.00,,,0.00,weatherlink.com 1.10,2013-01-02 05:08:00,
2013-01-02 06:23:00,50.8,44.0,30.11,WNW,291,2.0,4.0,76,0.00,,,0.00,weatherlink.com 1.10,2013-01-02 05:23:00,
2013-01-02 06:38:00,50.2,45.0,30.11,West,281,2.0,5.0,82,0.00,,,0.00,weatherlink.com 1.10,2013-01-02 05:38:00,
2013-01-02 06:53:00,49.7,45.0,30.12,West,259,1.0,4.0,84,0.00,,,0.00,weatherlink.com 1.10,2013-01-02 05:53:00,
2013-01-02 07:09:00,50.0,45.0,30.13,West,259,0.0,2.0,84,0.00,,,0.00,weatherlink.com 1.10,2013-01-02 06:09:00,
2013-01-02 07:24:00,49.9,46.0,30.13,SW,236,2.0,3.0,86,0.00,,,0.00,weatherlink.com 1.10,2013-01-02 06:24:00,
2013-01-02 07:39:00,50.0,46.0,30.13,ENE,70,0.0,2.0,85,0.00,,,0.00,weatherlink.com 1.10,2013-01-02 06:39:00,
2013-01-02 07:54:00,50.1,46.0,30.14,NNW,338,1.0,2.0,84,0.00,,,0.00,weatherlink.com 1.10,2013-01-02 06:54:00,
2013-01-02 08:09:00,50.1,46.0,30.14,ENE,60,1.0,2.0,84,0.00,,,0.00,weatherlink.com 1.10,2013-01-02 07:09:00,
2013-01-02 08:24:00,49.3,45.0,30.14,South,187,2.0,4.0,85,0.00,,,0.00,weatherlink.com 1.10,2013-01-02 07:24:00,
2013-01-02 08:39:00,48.9,45.0,30.15,SSE,148,1.0,3.0,87,0.00,,,0.00,weatherlink.com 1.10,2013-01-02 07:39:00,
2013-01-02 08:54:00,50.2,46.0,30.15,ENE,72,1.0,2.0,84,0.00,,,0.00,weatherlink.com 1.10,2013-01-02 07:54:00,
2013-01-02 09:09:00,50.5,46.0,30.16,ENE,70,0.0,0.0,83,0.00,,,0.00,weatherlink.com 1.10,2013-01-02 08:09:00,
2013-01-02 09:24:00,49.7,45.0,30.17,NE,56,0.0,1.0,83,0.00,,,0.00,weatherlink.com 1.10,2013-01-02 08:24:00,
2013-01-02 09:39:00,49.1,45.0,30.17,ENE,63,1.0,1.0,84,0.00,,,0.00,weatherlink.com 1.10,2013-01-02 08:39:00,
2013-01-02 09:54:00,48.6,44.0,30.17,NE,56,5.0,5.0,85,0.00,,,0.00,weatherlink.com 1.10,2013-01-02 08:54:00,
2013-01-02 10:09:00,48.7,44.0,30.17,NE,46,9.0,18.0,85,0.00,,,0.00,weatherlink.com 1.10,2013-01-02 09:09:00,
2013-01-02 10:24:00,49.0,45.0,30.18,NNE,25,8.0,18.0,86,0.00,,,0.00,weatherlink.com 1.10,2013-01-02 09:24:00,
2013-01-02 10:39:00,50.0,46.0,30.18,NE,51,8.0,20.0,86,0.00,,,0.00,weatherlink.com 1.10,2013-01-02 09:39:00,
2013-01-02 10:54:00,50.7,46.0,30.18,ENE,57,12.0,20.0,85,0.00,,,0.00,weatherlink.com 1.10,2013-01-02 09:54:00,
2013-01-02 11:09:00,51.0,45.0,30.19,ENE,64,18.0,18.0,81,0.00,,,0.00,weatherlink.com 1.10,2013-01-02 10:09:00,
2013-01-02 11:24:00,51.1,45.0,30.19,NE,46,9.0,22.0,79,0.00,,,0.00,weatherlink.com 1.10,2013-01-02 10:24:00,
2013-01-02 11:39:00,51.5,45.0,30.20,NE,46,8.0,19.0,78,0.00,,,0.00,weatherlink.com 1.10,2013-01-02 10:39:00,
2013-01-02 11:54:00,51.9,44.0,30.19,NNE,25,14.0,20.0,74,0.00,,,0.00,weatherlink.com 1.10,2013-01-02 10:54:00,
2013-01-02 12:09:00,52.5,44.0,30.19,NE,34,7.0,17.0,72,0.00,,,0.00,weatherlink.com 1.10,2013-01-02 11:09:00,
2013-01-02 12:24:00,52.8,44.0,30.19,NNE,32,8.0,14.0,72,0.00,,,0.00,weatherlink.com 1.10,2013-01-02 11:24:00,
2013-01-02 12:39:00,52.8,44.0,30.18,NNE,18,10.0,14.0,71,0.00,,,0.00,weatherlink.com 1.10,2013-01-02 11:39:00,
2013-01-02 12:54:00,53.1,44.0,30.18,NE,44,13.0,15.0,71,0.00,,,0.00,weatherlink.com 1.10,2013-01-02 11:54:00,
2013-01-02 13:09:00,53.2,44.0,30.18,ENE,68,12.0,18.0,70,0.00,,,0.00,weatherlink.com 1.10,2013-01-02 12:09:00,
2013-01-02 13:24:00,53.4,44.0,30.18,NE,56,15.0,17.0,70,0.00,,,0.00,weatherlink.com 1.10,2013-01-02 12:24:00,
2013-01-02 13:39:00,53.5,44.0,30.18,NNW,329,8.0,17.0,69,0.00,,,0.00,weatherlink.com 1.10,2013-01-02 12:39:00,
2013-01-02 13:54:00,54.1,43.0,30.17,NNE,25,11.0,17.0,67,0.00,,,0.00,weatherlink.com 1.10,2013-01-02 12:54:00,
2013-01-02 14:09:00,54.2,44.0,30.17,ENE,67,14.0,17.0,68,0.00,,,0.00,weatherlink.com 1.10,2013-01-02 13:09:00,
2013-01-02 14:25:00,54.7,44.0,30.17,NNE,32,11.0,14.0,67,0.00,,,0.00,weatherlink.com 1.10,2013-01-02 13:25:00,
2013-01-02 14:40:00,54.2,44.0,30.17,NE,49,9.0,15.0,69,0.00,,,0.00,weatherlink.com 1.10,2013-01-02 13:40:00,
2013-01-02 14:55:00,54.1,45.0,30.17,ENE,65,5.0,11.0,71,0.00,,,0.00,weatherlink.com 1.10,2013-01-02 13:55:00,
2013-01-02 15:10:00,54.2,44.0,30.17,ENE,64,6.0,11.0,69,0.00,,,0.00,weatherlink.com 1.10,2013-01-02 14:10:00,
2013-01-02 15:25:00,54.3,44.0,30.17,NE,51,10.0,13.0,69,0.00,,,0.00,weatherlink.com 1.10,2013-01-02 14:25:00,
2013-01-02 15:40:00,54.1,45.0,30.18,ENE,65,8.0,9.0,71,0.00,,,0.00,weatherlink.com 1.10,2013-01-02 14:40:00,
2013-01-02 15:55:00,53.8,45.0,30.18,ENE,72,5.0,10.0,72,0.00,,,0.00,weatherlink.com 1.10,2013-01-02 14:55:00,
2013-01-02 16:10:00,53.4,45.0,30.18,ENE,70,6.0,10.0,73,0.00,,,0.00,weatherlink.com 1.10,2013-01-02 15:10:00,
2013-01-02 16:25:00,53.3,45.0,30.19,NE,49,4.0,9.0,73,0.00,,,0.00,weatherlink.com 1.10,2013-01-02 15:25:00,
2013-01-02 16:40:00,53.0,45.0,30.19,NNE,32,3.0,7.0,74,0.00,,,0.00,weatherlink.com 1.10,2013-01-02 15:40:00,
2013-01-02 16:55:00,52.5,45.0,30.20,ENE,77,2.0,7.0,76,0.00,,,0.00,weatherlink.com 1.10,2013-01-02 15:55:00,
2013-01-02 17:10:00,52.0,45.0,30.20,ENE,65,3.0,6.0,77,0.00,,,0.00,weatherlink.com 1.10,2013-01-02 16:10:00,
2013-01-02 17:25:00,51.6,45.0,30.21,NE,53,3.0,5.0,77,0.00,,,0.00,weatherlink.com 1.10,2013-01-02 16:25:00,
2013-01-02 17:40:00,51.2,45.0,30.21,NE,40,5.0,6.0,78,0.00,,,0.00,weatherlink.com 1.10,2013-01-02 16:40:00,
2013-01-02 17:55:00,51.0,45.0,30.22,NE,56,4.0,5.0,79,0.00,,,0.00,weatherlink.com 1.10,2013-01-02 16:55:00,
2013-01-02 18:10:00,50.8,45.0,30.22,ENE,63,3.0,5.0,79,0.00,,,0.00,weatherlink.com 1.10,2013-01-02 17:10:00,
2013-01-02 18:25:00,50.4,44.0,30.23,NE,35,2.0,5.0,80,0.00,,,0.00,weatherlink.com 1.10,2013-01-02 17:25:00,
2013-01-02 18:40:00,50.4,45.0,30.24,NE,51,2.0,4.0,81,0.00,,,0.00,weatherlink.com 1.10,2013-01-02 17:40:00,
2013-01-02 18:55:00,50.3,45.0,30.24,ENE,70,1.0,4.0,82,0.00,,,0.00,weatherlink.com 1.10,2013-01-02 17:55:00,
2013-01-02 19:10:00,49.9,45.0,30.25,NE,43,1.0,4.0,82,0.00,,,0.00,weatherlink.com 1.10,2013-01-02 18:10:00,
2013-01-02 19:25:00,49.8,45.0,30.25,NE,35,0.0,3.0,83,0.00,,,0.00,weatherlink.com 1.10,2013-01-02 18:25:00,
2013-01-02 19:40:00,49.4,45.0,30.26,North,1,1.0,1.0,84,0.00,,,0.00,weatherlink.com 1.10,2013-01-02 18:40:00,
2013-01-02 19:55:00,49.0,44.0,30.26,North,10,1.0,3.0,84,0.00,,,0.00,weatherlink.com 1.10,2013-01-02 18:55:00,
2013-01-02 20:10:00,48.3,45.0,30.27,NNE,20,0.0,1.0,87,0.00,,,0.00,weatherlink.com 1.10,2013-01-02 19:10:00,
2013-01-02 20:25:00,48.9,45.0,30.27,NNE,18,0.0,1.0,87,0.00,,,0.00,weatherlink.com 1.10,2013-01-02 19:25:00,
2013-01-02 20:40:00,49.1,45.0,30.27,NNW,332,1.0,1.0,85,0.00,,,0.00,weatherlink.com 1.10,2013-01-02 19:40:00,
2013-01-02 20:55:00,48.7,45.0,30.27,NE,44,1.0,1.0,86,0.00,,,0.00,weatherlink.com 1.10,2013-01-02 19:55:00,
2013-01-02 21:10:00,49.1,45.0,30.27,NE,54,1.0,1.0,85,0.00,,,0.00,weatherlink.com 1.10,2013-01-02 20:10:00,
2013-01-02 21:25:00,48.8,44.0,30.28,NE,54,0.0,0.0,84,0.00,,,0.00,weatherlink.com 1.10,2013-01-02 20:25:00,
2013-01-02 21:40:00,49.4,44.0,30.29,ENE,72,3.0,4.0,82,0.00,,,0.00,weatherlink.com 1.10,2013-01-02 20:40:00,
2013-01-02 21:55:00,47.9,43.0,30.30,ENE,60,15.0,19.0,84,0.00,,,0.00,weatherlink.com 1.10,2013-01-02 20:55:00,
2013-01-02 22:10:00,46.3,42.0,30.31,NE,44,11.0,20.0,85,0.00,,,0.00,weatherlink.com 1.10,2013-01-02 21:10:00,
2013-01-02 22:25:00,45.4,43.0,30.31,ENE,75,16.0,21.0,90,0.02,,,0.02,weatherlink.com 1.10,2013-01-02 21:25:00,
2013-01-02 22:40:00,45.5,43.0,30.32,NE,40,11.0,15.0,89,0.02,,,0.02,weatherlink.com 1.10,2013-01-02 21:40:00,
2013-01-02 22:55:00,46.6,42.0,30.32,North,354,7.0,14.0,85,0.02,,,0.02,weatherlink.com 1.10,2013-01-02 21:55:00,
2013-01-02 23:10:00,47.5,41.0,30.32,NE,53,12.0,14.0,79,0.02,,,0.02,weatherlink.com 1.10,2013-01-02 22:10:00,
2013-01-02 23:25:00,48.3,40.0,30.33,NNE,32,8.0,13.0,74,0.01,,,0.02,weatherlink.com 1.10,2013-01-02 22:25:00,
2013-01-02 23:40:00,48.3,40.0,30.33,NNE,30,6.0,11.0,72,0.00,,,0.02,weatherlink.com 1.10,2013-01-02 22:40:00,
2013-01-02 23:55:00,47.8,39.0,30.33,NNE,20,4.0,11.0,72,0.00,,,0.02,weatherlink.com 1.10,2013-01-02 22:55:00,